Time;durP1;ratioP1;P1;durP2;ratioP2;P2;SDS_P1;SDS_P2;PMS_P1;PMS_P2;Temp;Humidity;BMP_temperature;BMP_pressure;BME280_temperature;BME280_humidity;BME280_pressure;Samples;Min_cycle;Max_cycle;Signal;HPM_P1;HPM_P2
2022/01/03 00:00:35;;;;;;;7.43;2.30;;;;;;;-5.23;56.12;98384.25;5019338;28;20053;-71
2022/01/03 00:03:05;;;;;;;7.90;2.40;;;;;;;-5.25;56.21;98385.50;5037674;28;20056;-71
2022/01/03 00:05:35;;;;;;;9.07;2.43;;;;;;;-5.23;56.39;98375.47;5046437;28;20581;-72
2022/01/03 00:08:03;;;;;;;7.40;2.03;;;;;;;-5.24;55.88;98360.50;5056046;28;20044;-71
2022/01/03 00:10:33;;;;;;;7.03;2.40;;;;;;;-5.30;56.24;98373.63;5022399;28;20049;-72
2022/01/03 00:13:01;;;;;;;8.30;2.00;;;;;;;-5.38;56.49;98378.38;5031975;28;20042;-78
2022/01/03 00:15:28;;;;;;;8.18;2.15;;;;;;;-5.39;56.58;98369.53;5045204;28;20128;-78
2022/01/03 00:17:55;;;;;;;9.17;2.40;;;;;;;-5.57;57.16;98352.31;5049578;28;20076;-78
2022/01/03 00:20:22;;;;;;;;;;;;;;;-5.60;57.19;98351.91;5038178;28;20053;-78
2022/01/03 00:22:53;;;;;;;7.33;2.10;;;;;;;-5.43;57.18;98352.31;5044297;28;19924;-78
2022/01/03 00:25:21;;;;;;;8.63;2.43;;;;;;;-5.53;57.08;98341.25;5036087;28;20522;-78
2022/01/03 00:27:57;;;;;;;8.80;2.50;;;;;;;-5.35;56.72;98343.31;5037706;28;20123;-76
2022/01/03 00:30:25;;;;;;;6.53;2.50;;;;;;;-5.33;56.75;98323.41;5029523;28;20447;-77
2022/01/03 00:32:58;;;;;;;8.05;2.25;;;;;;;-5.55;57.23;98305.00;5009286;28;20064;-76
2022/01/03 00:35:24;;;;;;;7.07;2.10;;;;;;;-5.35;57.00;98325.44;5031182;28;20123;-77
2022/01/03 00:37:51;;;;;;;6.13;2.30;;;;;;;-5.41;57.19;98319.09;5034038;28;20522;-77
2022/01/03 00:40:19;;;;;;;7.57;2.37;;;;;;;-5.52;57.51;98311.75;5056938;28;20562;-77
2022/01/03 00:42:46;;;;;;;6.80;2.33;;;;;;;-5.59;57.88;98311.75;5047362;28;20044;-77
2022/01/03 00:45:15;;;;;;;6.90;2.28;;;;;;;-5.38;57.15;98296.56;5046107;28;20133;-75
2022/01/03 00:47:41;;;;;;;7.63;2.17;;;;;;;-5.36;57.44;98299.84;5033963;28;20090;-76
2022/01/03 00:50:11;;;;;;;6.57;2.23;;;;;;;-5.24;56.99;98296.53;5035777;28;20049;-76
2022/01/03 00:52:38;;;;;;;10.77;2.60;;;;;;;-5.27;56.84;98297.75;5033306;28;20034;-76
2022/01/03 00:55:08;;;;;;;7.77;2.47;;;;;;;-5.39;57.33;98281.59;5030560;28;20045;-76
2022/01/03 00:57:48;;;;;;;8.87;2.57;;;;;;;-5.51;57.74;98283.25;5045560;28;20131;-76
2022/01/03 01:00:15;;;;;;;5.67;2.10;;;;;;;-5.67;58.09;98282.66;5056991;28;20049;-75
2022/01/03 01:02:50;;;;;;;8.95;2.42;;;;;;;-5.78;57.87;98256.66;5046110;28;20064;-75
2022/01/03 01:05:20;;;;;;;10.33;2.67;;;;;;;-5.57;57.78;98267.09;5030388;28;20053;-76
2022/01/03 01:07:48;;;;;;;8.00;2.60;;;;;;;-5.66;57.79;98267.50;5044998;28;20053;-76
2022/01/03 01:10:15;;;;;;;5.90;2.10;;;;;;;-5.67;57.99;98269.34;5047581;28;20414;-75
2022/01/03 01:12:43;;;;;;;9.23;2.70;;;;;;;-5.62;58.11;98253.59;5051096;28;20114;-76
2022/01/03 01:15:10;;;;;;;8.70;2.80;;;;;;;-5.68;58.03;98258.91;5050261;28;20045;-76
2022/01/03 01:17:39;;;;;;;10.50;2.70;;;;;;;-5.52;57.80;98236.34;5029535;28;20048;-75
2022/01/03 01:20:05;;;;;;;7.30;2.47;;;;;;;-5.43;57.48;98233.22;5036759;28;20472;-75
2022/01/03 01:22:35;;;;;;;10.67;2.53;;;;;;;-5.37;57.21;98228.13;5032572;28;20091;-75
2022/01/03 01:27:50;;;;;;;7.60;2.50;;;;;;;-5.55;58.02;98214.41;5046306;28;20046;-75
2022/01/03 01:30:20;;;;;;;9.17;2.17;;;;;;;-5.43;57.79;98216.44;5047963;28;20060;-75
2022/01/03 01:32:50;;;;;;;8.03;2.27;;;;;;;-5.48;57.91;98209.06;5030051;28;20045;-75
2022/01/03 01:35:19;;;;;;;8.23;2.20;;;;;;;-5.43;57.51;98216.44;5013679;28;20058;-75
2022/01/03 01:37:52;;;;;;;7.90;2.57;;;;;;;-5.53;57.61;98210.72;5033341;28;20053;-76
2022/01/03 01:40:21;;;;;;;9.33;2.40;;;;;;;-5.72;58.30;98202.59;5041908;28;20152;-76
2022/01/03 01:42:48;;;;;;;10.37;2.80;;;;;;;-5.62;58.16;98199.47;5040356;28;20088;-76
2022/01/03 01:45:21;;;;;;;8.63;2.70;;;;;;;-5.55;57.96;98187.78;5030057;28;20057;-76
2022/01/03 01:47:48;;;;;;;9.47;2.80;;;;;;;-5.45;57.75;98190.00;5036452;28;20532;-76
2022/01/03 01:50:15;;;;;;;11.43;3.08;;;;;;;-5.47;57.56;98188.56;5027632;28;20107;-76
2022/01/03 01:52:45;;;;;;;8.67;2.80;;;;;;;-5.55;58.07;98190.44;5022492;28;20080;-76
2022/01/03 01:55:14;;;;;;;8.30;2.37;;;;;;;-5.61;58.17;98183.31;5039526;28;20045;-74
2022/01/03 01:57:57;;;;;;;9.93;2.40;;;;;;;-5.56;58.18;98161.34;5041633;28;20048;-74
2022/01/03 02:00:32;;;;;;;10.23;2.47;;;;;;;-5.56;58.11;98172.00;5044023;28;20049;-73
2022/01/03 02:03:15;;;;;;;8.95;2.67;;;;;;;-5.70;58.75;98165.91;5045572;28;20068;-75
2022/01/03 02:05:53;;;;;;;8.77;2.70;;;;;;;-5.57;58.37;98167.69;5030306;28;20084;-75
2022/01/03 02:08:26;;;;;;;8.67;2.47;;;;;;;-5.53;58.09;98152.13;5036459;28;20132;-76
2022/01/03 02:11:01;;;;;;;9.37;2.30;;;;;;;-5.62;58.35;98147.03;5022247;28;20044;-74
2022/01/03 02:13:28;;;;;;;8.07;2.53;;;;;;;-5.51;58.31;98144.72;5044188;28;20056;-74
2022/01/03 02:16:03;;;;;;;10.97;2.90;;;;;;;-5.51;58.24;98145.56;5037915;28;20056;-74
2022/01/03 02:18:32;;;;;;;8.63;2.47;;;;;;;-5.50;58.46;98146.38;5047664;28;20060;-76
2022/01/03 02:21:01;;;;;;;7.63;2.57;;;;;;;-5.58;58.53;98147.41;5034250;28;20052;-76
2022/01/03 02:23:28;;;;;;;11.07;2.60;;;;;;;-5.58;58.81;98150.91;5039764;28;20049;-74
2022/01/03 02:25:55;;;;;;;10.60;3.28;;;;;;;-5.63;58.85;98137.38;5049691;28;20081;-74
2022/01/03 02:28:22;;;;;;;12.73;4.20;;;;;;;-5.91;59.25;98116.38;5035982;28;20053;-73
2022/01/03 02:30:51;;;;;;;13.10;3.87;;;;;;;-5.74;59.32;98127.41;5048501;28;20038;-75
2022/01/03 02:33:18;;;;;;;10.80;3.60;;;;;;;-5.69;58.89;98122.25;5038861;28;20061;-76
2022/01/03 02:35:47;;;;;;;9.53;3.40;;;;;;;-5.74;59.09;98111.44;5016628;28;20127;-76
2022/01/03 02:38:17;;;;;;;8.77;3.13;;;;;;;-5.68;59.11;98115.91;5060166;28;20537;-76
2022/01/03 02:40:44;;;;;;;10.43;3.13;;;;;;;-5.63;59.14;98108.09;5048769;28;20045;-76
2022/01/03 02:43:10;;;;;;;8.80;3.13;;;;;;;-5.60;58.79;98113.03;5028957;28;20042;-77
2022/01/03 02:45:36;;;;;;;10.00;2.77;;;;;;;-5.58;58.63;98105.63;5033070;28;20095;-76
2022/01/03 02:48:11;;;;;;;10.40;3.33;;;;;;;-5.65;59.07;98101.38;5034618;28;20042;-77
2022/01/03 02:50:39;;;;;;;10.30;2.83;;;;;;;-5.71;59.30;98103.81;5033128;28;20045;-76
2022/01/03 02:53:06;;;;;;;7.03;2.27;;;;;;;-5.68;59.15;98091.13;5052988;28;20148;-76
2022/01/03 02:55:38;;;;;;;10.05;2.60;;;;;;;-5.75;59.05;98078.66;5036406;28;20053;-76
2022/01/03 02:58:08;;;;;;;12.27;2.87;;;;;;;-5.72;59.44;98083.53;5052893;28;20056;-76
2022/01/03 03:00:48;;;;;;;9.60;2.87;;;;;;;-5.72;59.18;98083.53;5045192;28;20045;-76
2022/01/03 03:03:21;;;;;;;8.67;2.80;;;;;;;-5.81;59.57;98071.50;5035845;28;20051;-75
2022/01/03 03:05:50;;;;;;;8.83;2.47;;;;;;;-5.82;59.72;98080.53;5051757;28;20049;-76
2022/01/03 03:08:18;;;;;;;7.47;2.83;;;;;;;-5.81;59.71;98079.50;5031665;28;20137;-77
2022/01/03 03:10:46;;;;;;;7.30;2.47;;;;;;;-5.90;59.71;98070.94;5025735;28;20057;-76
2022/01/03 03:13:14;;;;;;;10.77;2.80;;;;;;;-5.92;59.81;98067.66;5032628;28;20080;-77
2022/01/03 03:15:40;;;;;;;8.25;2.30;;;;;;;-5.90;59.89;98070.94;5033618;28;20049;-77
2022/01/03 03:18:07;;;;;;;6.30;2.47;;;;;;;-6.00;59.95;98050.09;5037239;28;20513;-77
2022/01/03 03:20:33;;;;;;;9.47;2.43;;;;;;;-5.75;59.42;98065.34;5035487;28;20060;-76
2022/01/03 03:23:04;;;;;;;8.00;2.33;;;;;;;-5.79;59.58;98061.47;5055379;28;20054;-76
2022/01/03 03:25:35;;;;;;;10.30;2.70;;;;;;;-5.76;59.55;98065.56;5034940;28;20296;-76
2022/01/03 03:28:09;;;;;;;10.10;3.53;;;;;;;-5.77;59.99;98064.72;5042568;28;20509;-75
2022/01/03 03:30:37;;;;;;;11.23;2.90;;;;;;;-5.87;59.75;98048.38;5053744;28;20391;-76
2022/01/03 03:33:09;;;;;;;7.43;2.50;;;;;;;-5.67;59.49;98050.97;5039779;28;20424;-75
2022/01/03 03:35:39;;;;;;;10.20;2.50;;;;;;;-5.59;59.37;98056.06;5034797;28;20053;-75
2022/01/03 03:38:09;;;;;;;11.20;2.53;;;;;;;-5.68;59.29;98054.66;5037086;28;20060;-75
2022/01/03 03:40:36;;;;;;;9.67;2.53;;;;;;;-5.76;59.79;98039.75;5042641;28;20056;-76
2022/01/03 03:43:02;;;;;;;8.40;2.70;;;;;;;-5.71;59.47;98055.09;5039702;28;20045;-77
2022/01/03 03:45:30;;;;;;;11.50;2.40;;;;;;;-5.80;59.71;98037.69;5060009;28;20033;-76
2022/01/03 03:47:59;;;;;;;;;;;;;;;-5.73;59.59;98051.81;5051377;28;20055;-76
2022/01/03 03:50:25;;;;;;;7.47;2.60;;;;;;;-5.74;59.34;98045.66;5026369;28;19958;-75
2022/01/03 03:52:53;;;;;;;6.77;2.40;;;;;;;-5.69;59.72;98031.72;5032955;28;20056;-75
2022/01/03 03:55:19;;;;;;;10.33;2.80;;;;;;;-5.62;59.19;98031.69;5036028;28;20061;-76
2022/01/03 03:57:46;;;;;;;7.30;2.53;;;;;;;-5.65;59.31;98038.25;5041178;28;20064;-76
2022/01/03 04:00:15;;;;;;;10.98;2.95;;;;;;;-5.63;59.52;98032.72;5038926;28;20057;-76
2022/01/03 04:02:49;;;;;;;7.47;2.37;;;;;;;-5.68;59.59;98024.56;5043061;28;20140;-76
2022/01/03 04:05:17;;;;;;;7.50;2.73;;;;;;;-5.68;59.52;98022.69;5041294;28;20081;-75
2022/01/03 04:07:46;;;;;;;11.73;2.97;;;;;;;-5.74;59.57;98012.91;5031436;28;20045;-72
2022/01/03 04:10:15;;;;;;;8.03;2.70;;;;;;;-5.81;59.70;97988.97;5028327;28;20037;-75
2022/01/03 04:12:43;;;;;;;7.83;2.73;;;;;;;-5.73;59.36;97986.06;5034660;28;20517;-76
2022/01/03 04:15:10;;;;;;;10.13;3.00;;;;;;;-5.81;59.64;98001.47;5018572;28;20040;-76
2022/01/03 04:17:36;;;;;;;8.38;2.88;;;;;;;-5.78;59.67;98011.69;5051335;28;20045;-76
2022/01/03 04:20:05;;;;;;;8.90;2.77;;;;;;;-5.88;60.14;97999.66;5042433;28;20049;-75
2022/01/03 04:22:32;;;;;;;9.87;3.20;;;;;;;-5.86;59.86;97983.44;5041586;28;20135;-76
2022/01/03 04:24:58;;;;;;;6.60;2.47;;;;;;;-5.94;60.24;97989.03;5051122;28;20473;-76
2022/01/03 04:27:25;;;;;;;10.63;2.97;;;;;;;-5.96;60.40;98002.53;5051161;28;20048;-76
2022/01/03 04:29:51;;;;;;;7.67;2.73;;;;;;;-5.98;60.37;97989.47;5036487;28;20563;-76
2022/01/03 04:32:18;;;;;;;10.43;3.20;;;;;;;-5.96;60.65;97983.13;5040888;28;20506;-76
2022/01/03 04:34:44;;;;;;;9.17;3.50;;;;;;;-5.95;60.33;97985.53;5032696;28;20057;-76
2022/01/03 04:37:16;;;;;;;9.48;2.95;;;;;;;-6.04;60.66;97982.34;5030911;28;20053;-76
2022/01/03 04:39:43;;;;;;;9.37;3.13;;;;;;;-6.03;60.40;97969.88;5046045;28;20544;-76
2022/01/03 04:42:09;;;;;;;10.23;2.93;;;;;;;-6.07;60.73;97969.47;5046231;28;20047;-76
2022/01/03 04:44:36;;;;;;;9.60;3.23;;;;;;;-5.93;60.39;97961.38;5028458;28;20091;-76
2022/01/03 04:47:03;;;;;;;10.90;3.37;;;;;;;-5.90;60.50;97956.47;5031895;28;20064;-75
2022/01/03 04:49:29;;;;;;;8.65;3.03;;;;;;;-5.90;60.25;97956.47;5031620;28;20421;-76
2022/01/03 04:51:55;;;;;;;9.10;3.20;;;;;;;-5.85;60.10;97961.94;5051765;28;20048;-75
2022/01/03 04:54:23;;;;;;;10.20;3.27;;;;;;;-5.82;60.22;97952.72;5031523;28;20122;-75
2022/01/03 04:56:49;;;;;;;10.63;3.33;;;;;;;-5.82;60.15;97951.91;5016015;28;20045;-75
2022/01/03 04:59:15;;;;;;;12.20;3.73;;;;;;;-5.79;60.15;97946.97;5045383;28;20057;-76
2022/01/03 05:01:42;;;;;;;11.37;3.47;;;;;;;-5.80;60.29;97945.34;5014148;28;20049;-76
2022/01/03 05:04:08;;;;;;;8.20;3.40;;;;;;;-5.80;60.16;97942.69;5047733;28;20135;-75
2022/01/03 05:06:36;;;;;;;9.27;3.27;;;;;;;-5.81;60.12;97938.38;5038715;28;20060;-77
2022/01/03 05:09:03;;;;;;;11.70;3.30;;;;;;;-5.81;60.22;97929.56;5045683;28;20139;-76
2022/01/03 05:11:30;;;;;;;9.80;3.67;;;;;;;-5.90;60.17;97916.53;5050690;28;20130;-76
2022/01/03 05:13:56;;;;;;;;;;;;;;;-5.93;60.46;97916.97;5041674;28;20053;-76
2022/01/03 05:16:22;;;;;;;14.23;3.57;;;;;;;-5.86;60.48;97915.06;5032916;28;20309;-76
2022/01/03 05:18:48;;;;;;;10.57;3.30;;;;;;;-5.88;60.43;97917.13;5046353;28;20046;-76
2022/01/03 05:21:15;;;;;;;10.60;3.73;;;;;;;-5.90;60.66;97913.03;5031555;28;20055;-76
2022/01/03 05:23:44;;;;;;;12.53;4.00;;;;;;;-5.86;60.61;97900.91;5050232;28;20083;-76
2022/01/03 05:26:12;;;;;;;10.67;3.53;;;;;;;-5.95;60.31;97871.09;5024693;28;20132;-76
2022/01/03 05:28:40;;;;;;;9.87;4.20;;;;;;;-5.77;60.09;97904.16;5044201;28;20059;-76
2022/01/03 05:31:08;;;;;;;12.55;4.13;;;;;;;-5.74;60.42;97912.53;5054178;28;20053;-73
2022/01/03 05:33:35;;;;;;;16.30;4.60;;;;;;;-5.79;60.15;97907.03;5050415;28;20091;-76
2022/01/03 05:36:01;;;;;;;12.67;4.40;;;;;;;-5.94;60.32;97886.03;5030553;28;20042;-74
2022/01/03 05:38:29;;;;;;;11.30;3.93;;;;;;;-5.77;60.52;97906.84;5017124;28;20140;-76
2022/01/03 05:40:55;;;;;;;9.10;3.45;;;;;;;-5.77;60.14;97899.66;5042006;28;20468;-75
2022/01/03 05:43:22;;;;;;;12.90;4.13;;;;;;;-5.77;60.12;97907.63;5044431;28;20076;-76
2022/01/03 05:45:49;;;;;;;13.77;3.93;;;;;;;-5.75;60.45;97900.25;5037043;28;20041;-75
2022/01/03 05:48:15;;;;;;;;;;;;;;;-5.73;60.27;97895.50;5037610;28;20037;-76
2022/01/03 05:50:41;;;;;;;9.10;3.63;;;;;;;-5.79;60.06;97885.72;5035669;28;20023;-75
2022/01/03 05:53:08;;;;;;;13.93;4.27;;;;;;;-5.82;60.33;97890.66;5051265;28;20069;-75
2022/01/03 05:55:34;;;;;;;11.67;4.30;;;;;;;-5.90;60.49;97897.06;5048633;28;20053;-75
2022/01/03 05:58:01;;;;;;;9.23;3.72;;;;;;;-5.77;60.12;97898.84;5048467;28;20175;-75
2022/01/03 06:00:31;;;;;;;11.97;3.80;;;;;;;-5.79;60.18;97895.56;5047835;28;20063;-78
2022/01/03 06:02:59;;;;;;;9.23;3.43;;;;;;;-5.78;59.94;97890.03;5034396;28;20405;-79
2022/01/03 06:08:04;;;;;;;9.20;3.43;;;;;;;-5.79;60.05;97891.06;5045705;28;20041;-78
2022/01/03 06:10:39;;;;;;;8.83;3.70;;;;;;;-5.82;60.55;97885.34;5048441;28;20057;-78
2022/01/03 06:13:06;;;;;;;10.63;4.13;;;;;;;-5.82;60.40;97888.84;5027356;28;20546;-78
2022/01/03 06:15:33;;;;;;;10.87;3.63;;;;;;;-5.87;60.48;97870.00;5041128;28;20132;-77
2022/01/03 06:18:02;;;;;;;12.32;4.80;;;;;;;-5.83;60.65;97873.91;5026567;28;20051;-78
2022/01/03 06:20:28;;;;;;;10.67;3.87;;;;;;;-5.76;60.23;97865.88;5066602;28;20071;-77
2022/01/03 06:22:55;;;;;;;10.35;4.05;;;;;;;-5.81;59.93;97849.69;5034027;28;20049;-77
2022/01/03 06:25:21;;;;;;;14.33;4.00;;;;;;;-5.75;59.87;97851.50;5044647;28;20044;-77
2022/01/03 06:27:48;;;;;;;12.13;3.83;;;;;;;-5.76;60.04;97848.03;5031768;28;20052;-77
2022/01/03 06:30:15;;;;;;;11.87;3.30;;;;;;;-5.75;59.89;97847.00;5048943;28;20625;-78
2022/01/03 06:32:44;;;;;;;11.73;3.60;;;;;;;-5.72;59.65;97835.91;5042772;28;20049;-77
2022/01/03 06:35:11;;;;;;;9.80;3.60;;;;;;;-5.76;59.86;97823.25;5044525;28;20045;-77
2022/01/03 06:37:38;;;;;;;10.10;3.70;;;;;;;-5.66;59.75;97834.22;5033137;28;20587;-77
2022/01/03 06:40:15;;;;;;;;;;;;;;;-5.72;59.86;97833.22;5050372;28;20060;-77
2022/01/03 06:42:41;;;;;;;11.60;3.77;;;;;;;-5.73;59.68;97822.81;5046255;28;19925;-76
2022/01/03 06:45:08;;;;;;;9.57;3.57;;;;;;;-5.71;59.83;97813.56;5030264;28;20041;-77
2022/01/03 06:47:35;;;;;;;10.88;3.67;;;;;;;-5.78;59.59;97801.34;5047732;28;20121;-77
2022/01/03 06:50:04;;;;;;;10.38;4.20;;;;;;;-5.79;59.78;97805.84;5049133;28;20049;-77
2022/01/03 06:52:32;;;;;;;8.97;3.60;;;;;;;-5.72;59.78;97803.16;5048920;28;20059;-77
2022/01/03 06:54:58;;;;;;;8.52;3.47;;;;;;;-5.71;59.73;97807.44;5049605;28;20056;-77
2022/01/03 06:57:24;;;;;;;10.97;3.93;;;;;;;-5.79;59.85;97794.38;5051913;28;20578;-77
2022/01/03 06:59:50;;;;;;;13.17;3.87;;;;;;;-5.73;59.72;97791.66;5013780;28;20460;-76
2022/01/03 07:02:18;;;;;;;12.43;4.55;;;;;;;-5.72;59.83;97795.16;5044818;28;20135;-77
2022/01/03 07:04:44;;;;;;;17.97;4.30;;;;;;;-5.73;59.56;97791.66;5034452;28;20049;-75
2022/01/03 07:07:11;;;;;;;10.70;3.93;;;;;;;-5.74;59.70;97790.03;5043421;28;20068;-76
2022/01/03 07:09:39;;;;;;;10.67;3.50;;;;;;;-5.88;60.00;97773.38;5043501;28;20516;-75
2022/01/03 07:12:05;;;;;;;;;;;;;;;-5.76;60.37;97791.31;5045025;28;20065;-71
2022/01/03 07:19:48;;;;;;;9.83;3.43;;;;;;;-5.57;59.30;97779.66;5047240;28;20052;-70
2022/01/03 07:22:14;;;;;;;10.83;3.67;;;;;;;-5.59;59.31;97781.72;5029517;28;20509;-71
2022/01/03 07:24:43;;;;;;;11.70;3.90;;;;;;;-5.57;59.10;97770.84;5029137;28;20052;-71
2022/01/03 07:27:11;;;;;;;11.17;4.30;;;;;;;-5.73;59.43;97749.06;5045555;28;20041;-71
2022/01/03 07:29:38;;;;;;;12.20;3.90;;;;;;;-5.56;59.36;97772.47;5052962;28;20547;-71
2022/01/03 07:32:05;;;;;;;10.70;3.53;;;;;;;-5.57;59.19;97766.34;5046247;28;20037;-68
2022/01/03 07:34:31;;;;;;;;;;;;;;;-5.57;59.06;97776.16;5039154;28;20091;-72
2022/01/03 07:37:00;;;;;;;13.13;3.70;;;;;;;-5.57;59.05;97784.16;5045496;28;20387;-71
2022/01/03 07:39:28;;;;;;;10.10;3.63;;;;;;;-5.59;58.80;97779.06;5045053;28;20095;-72
2022/01/03 07:41:56;;;;;;;9.23;3.33;;;;;;;-5.70;59.42;97772.63;5046454;28;20049;-73
2022/01/03 07:44:24;;;;;;;9.30;3.30;;;;;;;-5.64;58.91;97781.53;5039847;28;20522;-71
2022/01/03 07:46:51;;;;;;;11.13;3.83;;;;;;;-5.62;59.07;97781.34;5037973;28;20090;-71
2022/01/03 07:49:17;;;;;;;11.40;3.73;;;;;;;-5.64;59.38;97778.88;5038305;28;20060;-71
2022/01/03 07:51:43;;;;;;;9.30;3.30;;;;;;;-5.62;59.14;97766.19;5051392;28;20044;-70
2022/01/03 07:54:09;;;;;;;9.60;3.23;;;;;;;-5.64;59.18;97765.56;5045793;28;20049;-70
2022/01/03 07:56:36;;;;;;;9.23;3.50;;;;;;;-5.64;59.05;97757.56;5039733;28;20095;-70
2022/01/03 07:59:05;;;;;;;9.63;3.37;;;;;;;-5.64;58.99;97757.56;5036315;28;20057;-71
2022/01/03 08:01:31;;;;;;;12.87;4.20;;;;;;;-5.60;59.06;97757.97;5037820;28;20053;-70
2022/01/03 08:03:58;;;;;;;10.20;3.77;;;;;;;-5.63;59.09;97751.22;5042270;28;20049;-72
2022/01/03 08:06:24;;;;;;;11.53;3.90;;;;;;;-5.68;59.39;97743.09;5035422;28;20055;-70
2022/01/03 08:08:50;;;;;;;10.30;3.30;;;;;;;-5.67;59.27;97747.38;5045454;28;20083;-72
2022/01/03 08:11:16;;;;;;;11.40;4.10;;;;;;;-5.65;59.10;97744.50;5038281;28;20402;-70
2022/01/03 08:13:43;;;;;;;12.67;4.07;;;;;;;-5.60;59.24;97740.16;5038016;28;20154;-72
2022/01/03 08:16:10;;;;;;;11.43;4.13;;;;;;;-5.61;59.07;97725.22;5042548;28;20053;-70
2022/01/03 08:18:36;;;;;;;10.25;4.05;;;;;;;-5.56;59.20;97728.00;5032112;28;20518;-70
2022/01/03 08:21:03;;;;;;;10.50;4.10;;;;;;;-5.56;59.19;97727.19;5031326;28;20490;-71
2022/01/03 08:23:31;;;;;;;11.40;3.87;;;;;;;-5.71;59.63;97722.22;5029951;28;20099;-71
2022/01/03 08:26:00;;;;;;;9.47;3.43;;;;;;;-5.72;59.75;97718.72;5026895;28;20053;-72
2022/01/03 08:28:26;;;;;;;12.90;3.70;;;;;;;-5.59;59.76;97707.16;5051575;28;20067;-71
2022/01/03 08:30:53;;;;;;;12.13;3.70;;;;;;;-5.60;58.87;97688.72;5036811;28;20409;-71
2022/01/03 08:33:20;;;;;;;11.10;3.53;;;;;;;-5.41;58.99;97708.97;5043805;28;20351;-69
2022/01/03 08:35:47;;;;;;;10.75;3.70;;;;;;;-5.45;58.62;97702.47;5032034;28;20049;-69
2022/01/03 08:38:14;;;;;;;11.83;3.67;;;;;;;-5.48;59.26;97702.94;5017915;28;20075;-69
2022/01/03 08:40:40;;;;;;;11.33;4.40;;;;;;;-5.49;59.17;97692.50;5048675;28;20578;-70
2022/01/03 08:43:06;;;;;;;9.90;3.70;;;;;;;-5.56;59.26;97693.38;5049041;28;20501;-68
2022/01/03 08:45:34;;;;;;;10.77;3.90;;;;;;;-5.56;59.07;97693.38;5045621;28;20541;-73
2022/01/03 08:48:00;;;;;;;;;;;;;;;-5.43;59.10;97686.28;5041304;28;20486;-69
2022/01/03 08:50:27;;;;;;;10.87;3.73;;;;;;;-5.48;59.14;97681.63;5028983;28;19928;-69
2022/01/03 08:52:53;;;;;;;10.25;3.70;;;;;;;-5.49;59.06;97665.84;5035250;28;20037;-70
2022/01/03 08:55:20;;;;;;;9.90;3.73;;;;;;;-5.36;58.91;97660.38;5048224;28;20142;-70
2022/01/03 08:57:51;;;;;;;10.27;3.60;;;;;;;-5.24;58.58;97665.75;5035661;28;20413;-74
2022/01/03 09:00:18;;;;;;;9.40;3.07;;;;;;;-5.30;58.61;97650.66;5045929;28;20475;-74
2022/01/03 09:02:48;;;;;;;10.57;3.40;;;;;;;-5.21;58.34;97651.16;5047942;28;20083;-73
2022/01/03 09:05:14;;;;;;;9.37;3.50;;;;;;;-5.21;58.23;97638.66;5045800;28;20282;-73
2022/01/03 09:07:41;;;;;;;9.97;3.50;;;;;;;-5.14;58.03;97643.91;5050143;28;20186;-73
2022/01/03 09:10:08;;;;;;;11.05;4.05;;;;;;;-5.24;58.58;97640.97;5045465;28;20076;-72
2022/01/03 09:12:38;;;;;;;12.83;3.67;;;;;;;-5.22;58.66;97642.38;5030521;28;20112;-73
2022/01/03 09:15:07;;;;;;;11.03;3.60;;;;;;;-5.25;58.77;97626.81;5030296;28;20077;-74
2022/01/03 09:17:33;;;;;;;9.90;3.25;;;;;;;-5.32;58.84;97612.78;5029448;28;20046;-74
2022/01/03 09:20:01;;;;;;;10.30;3.40;;;;;;;-5.21;58.79;97617.34;5048592;28;20494;-74
2022/01/03 09:22:37;;;;;;;9.80;3.40;;;;;;;-5.07;58.38;97612.63;5033599;28;20049;-73
2022/01/03 09:30:21;;;;;;;11.63;3.87;;;;;;;-4.93;58.13;97601.78;5049958;28;20053;-73
2022/01/03 09:32:51;;;;;;;8.97;3.33;;;;;;;-4.95;57.98;97603.88;5029797;28;20088;-73
2022/01/03 09:35:17;;;;;;;11.93;3.40;;;;;;;-5.11;58.02;97598.16;5013636;28;20152;-73
2022/01/03 09:37:43;;;;;;;10.10;3.40;;;;;;;-5.08;58.17;97589.69;5047725;28;20037;-73
2022/01/03 09:40:14;;;;;;;10.80;3.57;;;;;;;-4.98;58.17;97589.13;5051232;28;20425;-74
2022/01/03 09:42:44;;;;;;;14.17;3.67;;;;;;;-4.75;57.49;97601.72;5032527;28;20048;-73
2022/01/03 09:45:11;;;;;;;10.90;3.90;;;;;;;-4.82;57.74;97595.69;5045600;28;20055;-73
2022/01/03 09:47:39;;;;;;;12.13;3.72;;;;;;;-4.91;58.08;97592.53;5042706;28;20510;-73
2022/01/03 09:50:11;;;;;;;13.27;4.97;;;;;;;-4.92;57.94;97593.53;5049755;28;20060;-73
2022/01/03 09:52:38;;;;;;;13.20;4.67;;;;;;;-4.86;57.91;97591.81;5051457;28;20053;-73
2022/01/03 09:55:05;;;;;;;10.95;3.97;;;;;;;-4.94;58.23;97584.97;5027905;28;20046;-73
2022/01/03 09:57:33;;;;;;;11.68;4.55;;;;;;;-4.89;57.96;97573.63;5036991;28;20057;-73
2022/01/03 10:00:04;;;;;;;12.20;4.18;;;;;;;-4.85;57.76;97578.28;5030917;28;20059;-72
2022/01/03 10:02:34;;;;;;;9.40;4.10;;;;;;;-4.87;57.96;97582.19;5031990;28;20054;-72
2022/01/03 10:05:05;;;;;;;10.47;4.47;;;;;;;-4.86;57.81;97576.66;5044649;28;20049;-73
2022/01/03 10:07:35;;;;;;;12.27;4.30;;;;;;;-4.84;57.83;97565.75;5051115;28;20048;-72
2022/01/03 10:10:03;;;;;;;10.00;4.20;;;;;;;-4.83;57.55;97567.38;5049540;28;20056;-72
2022/01/03 10:12:29;;;;;;;10.13;3.80;;;;;;;-4.87;57.70;97563.53;5028048;28;20045;-75
2022/01/03 10:14:59;;;;;;;9.93;4.20;;;;;;;-4.77;57.53;97560.31;5046018;28;20058;-72
2022/01/03 10:17:29;;;;;;;13.37;4.70;;;;;;;-4.77;57.66;97552.31;5034634;28;20069;-73
2022/01/03 10:20:00;;;;;;;14.00;4.80;;;;;;;-4.67;57.15;97562.44;5033292;28;20458;-73
2022/01/03 10:22:29;;;;;;;12.00;4.03;;;;;;;-4.73;57.37;97554.28;5048176;28;20045;-73
2022/01/03 10:25:01;;;;;;;14.80;4.00;;;;;;;-4.73;57.24;97543.63;5034568;28;20494;-72
2022/01/03 10:27:48;;;;;;;13.57;4.53;;;;;;;-4.87;57.41;97528.88;5033483;28;20585;-73
2022/01/03 10:30:29;;;;;;;12.43;5.23;;;;;;;-4.76;57.29;97544.09;5033795;28;20528;-73
2022/01/03 10:32:57;;;;;;;13.90;5.00;;;;;;;-4.68;57.44;97547.44;5051753;28;20051;-73
2022/01/03 10:35:26;;;;;;;18.50;6.20;;;;;;;-4.63;57.02;97534.25;5052995;28;20051;-74
2022/01/03 10:37:53;;;;;;;14.30;5.80;;;;;;;-4.54;57.11;97532.84;5054542;28;20072;-74
2022/01/03 10:40:25;;;;;;;13.17;5.43;;;;;;;-4.58;56.94;97523.69;5045834;28;20048;-74
2022/01/03 10:42:55;;;;;;;18.93;6.53;;;;;;;-4.49;57.02;97540.16;5016543;28;20452;-74
2022/01/03 10:45:33;;;;;;;15.87;6.43;;;;;;;-4.53;56.81;97531.78;5000019;28;20049;-73
2022/01/03 10:48:02;;;;;;;19.37;7.00;;;;;;;-4.52;56.87;97525.44;5033512;28;20099;-75
2022/01/03 10:50:29;;;;;;;16.13;6.00;;;;;;;-4.59;56.93;97522.06;5022979;28;20123;-74
2022/01/03 10:52:59;;;;;;;14.13;6.17;;;;;;;-4.61;56.90;97511.59;5000093;28;20506;-73
2022/01/03 10:55:35;;;;;;;14.13;5.70;;;;;;;-4.73;57.01;97514.28;5032954;28;20114;-73
2022/01/03 10:58:03;;;;;;;14.07;5.88;;;;;;;-4.67;57.07;97522.41;5037112;28;20033;-72
2022/01/03 11:00:38;;;;;;;14.47;5.33;;;;;;;-4.68;57.29;97520.75;5051824;28;20052;-73
2022/01/03 11:05:46;;;;;;;;;;;;;;;-4.66;56.97;97519.50;5033781;28;20104;-73
2022/01/03 11:11:04;;;;;;;14.50;5.50;;;;;;;-4.71;57.22;97512.19;5034696;28;20053;-74
2022/01/03 11:13:32;;;;;;;13.43;5.63;;;;;;;-4.65;57.04;97507.78;5034197;28;20052;-74
2022/01/03 11:16:02;;;;;;;13.33;5.93;;;;;;;-4.56;56.88;97492.25;5034626;28;20045;-72
2022/01/03 11:18:33;;;;;;;14.47;6.00;;;;;;;-4.44;56.83;97501.06;5032444;28;20049;-73
2022/01/03 11:21:05;;;;;;;16.00;6.13;;;;;;;-4.43;56.73;97489.34;5033561;28;20075;-73
2022/01/03 11:23:31;;;;;;;14.50;5.57;;;;;;;-4.46;56.67;97494.31;5046295;28;20044;-73
2022/01/03 11:25:58;;;;;;;16.83;6.30;;;;;;;-4.49;56.82;97492.13;5047391;28;20068;-73
2022/01/03 11:28:29;;;;;;;14.45;5.75;;;;;;;-4.60;56.84;97491.91;5014766;28;20049;-73
2022/01/03 11:30:57;;;;;;;15.40;5.87;;;;;;;-4.70;57.12;97475.69;5015606;28;20053;-73
2022/01/03 11:33:27;;;;;;;16.53;6.33;;;;;;;-4.66;56.98;97484.03;5033904;28;20085;-73
2022/01/03 11:35:53;;;;;;;16.70;6.07;;;;;;;-4.66;57.27;97490.16;5035709;28;20132;-73
2022/01/03 11:38:22;;;;;;;16.50;6.10;;;;;;;-4.62;57.01;97485.19;5033677;28;20103;-73
2022/01/03 11:40:49;;;;;;;15.93;6.03;;;;;;;-4.56;57.05;97486.91;5036449;28;20055;-73
2022/01/03 11:43:16;;;;;;;13.93;6.17;;;;;;;-4.52;56.86;97482.75;5051765;28;20122;-72
2022/01/03 11:45:43;;;;;;;18.50;7.00;;;;;;;-4.41;56.54;97486.44;5046630;28;20135;-72
2022/01/03 11:48:12;;;;;;;14.87;7.17;;;;;;;-4.42;56.74;97477.63;5034757;28;20056;-73
2022/01/03 11:50:40;;;;;;;19.83;7.30;;;;;;;-4.41;56.94;97481.91;5033964;28;20509;-73
2022/01/03 11:53:08;;;;;;;18.07;7.07;;;;;;;-4.44;56.72;97484.25;5050006;28;20063;-72
2022/01/03 11:55:35;;;;;;;;;;;;;;;-4.45;56.77;97485.25;5033163;28;20049;-73
2022/01/03 12:03:39;;;;;;;18.20;6.73;;;;;;;-4.58;56.83;97478.34;5053130;28;20053;-72